Time;durP1;ratioP1;P1;durP2;ratioP2;P2;SDS_P1;SDS_P2;PMS_P1;PMS_P2;Temp;Humidity;BMP_temperature;BMP_pressure;BME280_temperature;BME280_humidity;BME280_pressure;Samples;Min_cycle;Max_cycle;Signal;HPM_P1;HPM_P2
2022/09/24 00:00:58;;;;;;;;;;;18.70;58.70;;;;;;5075255;28;19919;-94
2022/09/24 00:03:24;;;;;;;;;;;18.70;58.60;;;;;;5081609;28;19923;-89
2022/09/24 00:05:51;;;;;;;;;;;18.70;58.60;;;;;;5093534;28;19955;-88
2022/09/24 00:08:18;;;;;;;;;;;18.70;58.60;;;;;;5094013;28;19967;-89
2022/09/24 00:10:44;;;;;;;;;;;18.70;58.60;;;;;;5093859;28;19943;-92
2022/09/24 00:13:12;;;;;;;;;;;18.70;58.70;;;;;;5092570;28;19991;-88
2022/09/24 00:15:38;;;;;;;;;;;18.80;58.70;;;;;;5093916;28;19912;-87
2022/09/24 00:18:04;;;;;;;;;;;18.70;58.70;;;;;;5093200;28;19942;-85
2022/09/24 00:20:31;;;;;;;;;;;18.70;58.70;;;;;;5091807;28;19922;-85
2022/09/24 00:22:57;;;;;;;;;;;18.70;58.70;;;;;;5093914;28;19912;-92
2022/09/24 00:28:07;;;;;;;;;;;18.70;58.80;;;;;;5095801;28;19920;-89
2022/09/24 00:30:33;;;;;;;;;;;18.70;58.90;;;;;;5093684;28;19917;-87
2022/09/24 00:32:59;;;;;;;;;;;18.60;58.80;;;;;;5095196;28;19986;-86
2022/09/24 00:35:24;;;;;;;;;;;18.70;58.80;;;;;;5093379;28;19962;-93
2022/09/24 00:37:50;;;;;;;;;;;18.70;58.70;;;;;;5093422;28;19961;-86
2022/09/24 00:40:15;;;;;;;;;;;18.70;58.70;;;;;;5093629;28;19929;-86
2022/09/24 00:42:41;;;;;;;;;;;18.70;58.80;;;;;;5094987;28;20002;-88
2022/09/24 00:45:08;;;;;;;;;;;18.70;58.80;;;;;;5091870;28;20352;-92
2022/09/24 00:47:36;;;;;;;;;;;18.70;58.80;;;;;;5092757;28;19923;-86
2022/09/24 00:50:07;;;;;;;;;;;18.70;58.80;;;;;;5093779;28;19961;-92
2022/09/24 00:52:34;;;;;;;;;;;18.70;58.90;;;;;;5093695;28;20386;-86
2022/09/24 00:55:00;;;;;;;;;;;18.70;58.90;;;;;;5093083;28;19912;-87
2022/09/24 00:57:26;;;;;;;;;;;18.70;58.90;;;;;;5093383;28;19951;-89
2022/09/24 00:59:53;;;;;;;;;;;18.70;58.80;;;;;;5093128;28;20393;-88
2022/09/24 01:02:19;;;;;;;;;;;18.70;58.90;;;;;;5093045;28;19916;-87
2022/09/24 01:04:47;;;;;;;;;;;18.70;59.00;;;;;;5072864;28;19908;-89
2022/09/24 01:07:12;;;;;;;;;;;18.60;59.00;;;;;;5074676;28;19928;-90
2022/09/24 01:09:38;;;;;;;;;;;18.60;59.10;;;;;;5072756;28;19909;-88
2022/09/24 01:12:03;;;;;;;;;;;18.60;59.10;;;;;;5073776;28;19923;-93
2022/09/24 01:14:52;;;;;;;;;;;18.50;59.10;;;;;;5073952;28;20009;-85
2022/09/24 01:17:25;;;;;;;;;;;18.50;59.20;;;;;;5072254;28;19924;-87
2022/09/24 01:20:11;;;;;;;;;;;18.50;59.30;;;;;;5072088;28;20358;-90
2022/09/24 01:22:56;;;;;;;;;;;18.50;59.30;;;;;;5071055;28;19944;-89
2022/09/24 01:25:37;;;;;;;;;;;18.40;59.40;;;;;;5072837;28;19916;-88
2022/09/24 01:28:23;;;;;;;;;;;18.40;59.50;;;;;;5073219;28;19944;-89
2022/09/24 01:30:51;;;;;;;;;;;18.40;59.50;;;;;;5072071;28;19919;-89
2022/09/24 01:33:19;;;;;;;;;;;18.30;59.50;;;;;;5072421;28;19924;-88
2022/09/24 01:35:49;;;;;;;;;;;18.30;59.50;;;;;;5072296;28;20263;-85
2022/09/24 01:38:20;;;;;;;;;;;18.30;59.60;;;;;;5072456;28;19921;-89
2022/09/24 01:40:46;;;;;;;;;;;18.30;59.60;;;;;;5071607;28;20416;-90
2022/09/24 01:43:13;;;;;;;;;;;18.30;59.60;;;;;;5070157;28;19912;-92
2022/09/24 01:45:39;;;;;;;;;;;18.30;59.60;;;;;;5074173;28;19916;-86
2022/09/24 01:48:05;;;;;;;;;;;18.30;59.70;;;;;;5074608;28;20170;-92
2022/09/24 01:50:39;;;;;;;;;;;18.20;59.80;;;;;;5071880;28;19916;-90
2022/09/24 01:53:07;;;;;;;;;;;18.20;59.90;;;;;;5070938;28;19916;-90
2022/09/24 01:55:37;;;;;;;;;;;18.20;60.00;;;;;;5071670;28;20367;-88
2022/09/24 01:58:15;;;;;;;;;;;18.20;60.00;;;;;;5070093;28;20369;-90
2022/09/24 02:00:43;;;;;;;;;;;18.10;60.00;;;;;;5074360;28;19916;-89
2022/09/24 02:03:14;;;;;;;;;;;18.10;60.00;;;;;;5081122;28;19908;-92
2022/09/24 02:05:47;;;;;;;;;;;18.00;60.00;;;;;;5091442;28;19913;-88
2022/09/24 02:08:16;;;;;;;;;;;18.00;60.00;;;;;;5091403;28;19970;-91
2022/09/24 02:10:46;;;;;;;;;;;18.00;60.10;;;;;;5091688;28;19913;-92
2022/09/24 02:13:14;;;;;;;;;;;17.90;60.10;;;;;;5095204;28;20011;-85
2022/09/24 02:15:41;;;;;;;;;;;17.90;60.10;;;;;;5092323;28;20366;-92
2022/09/24 02:18:08;;;;;;;;;;;17.80;60.10;;;;;;5092913;28;19985;-93
2022/09/24 02:20:34;;;;;;;;;;;17.80;60.20;;;;;;5091199;28;19923;-88
2022/09/24 02:23:00;;;;;;;;;;;17.80;60.20;;;;;;5092666;28;19916;-87
2022/09/24 02:25:30;;;;;;;;;;;17.80;60.20;;;;;;5092008;28;19916;-90
2022/09/24 02:27:55;;;;;;;;;;;17.80;60.20;;;;;;5089688;28;19916;-86
2022/09/24 02:30:21;;;;;;;;;;;17.70;60.30;;;;;;5091291;28;20278;-86
2022/09/24 02:32:47;;;;;;;;;;;17.70;60.30;;;;;;5089937;28;19920;-90
2022/09/24 02:35:13;;;;;;;;;;;17.70;60.30;;;;;;5091124;28;19967;-88
2022/09/24 02:37:40;;;;;;;;;;;17.70;60.40;;;;;;5090386;28;20371;-87
2022/09/24 02:40:07;;;;;;;;;;;17.70;60.40;;;;;;5089605;28;19923;-92
2022/09/24 02:42:32;;;;;;;;;;;17.60;60.40;;;;;;5091134;28;19916;-87
2022/09/24 02:44:59;;;;;;;;;;;17.60;60.30;;;;;;5091086;28;19969;-89
2022/09/24 02:47:25;;;;;;;;;;;17.60;60.30;;;;;;5092530;28;19916;-85
2022/09/24 02:49:51;;;;;;;;;;;17.50;60.30;;;;;;5090031;28;19977;-93
2022/09/24 02:52:17;;;;;;;;;;;17.60;60.30;;;;;;5090171;28;19916;-87
2022/09/24 02:54:43;;;;;;;;;;;17.60;60.20;;;;;;5090558;28;19913;-93
2022/09/24 02:57:09;;;;;;;;;;;17.60;60.20;;;;;;5090355;28;19920;-88
2022/09/24 02:59:34;;;;;;;;;;;17.60;60.20;;;;;;5090131;28;20338;-88
2022/09/24 03:02:00;;;;;;;;;;;17.50;60.20;;;;;;5091687;28;19912;-89
2022/09/24 03:04:25;;;;;;;;;;;17.50;60.20;;;;;;5073002;28;19966;-88
2022/09/24 03:06:51;;;;;;;;;;;17.60;60.20;;;;;;5070952;28;19955;-92
2022/09/24 03:09:24;;;;;;;;;;;17.50;60.20;;;;;;5070477;28;20366;-89
2022/09/24 03:11:49;;;;;;;;;;;17.50;60.30;;;;;;5069585;28;19912;-90
2022/09/24 03:14:15;;;;;;;;;;;17.50;60.30;;;;;;5070304;28;19913;-90
2022/09/24 03:16:40;;;;;;;;;;;17.50;60.30;;;;;;5071334;28;19920;-91
2022/09/24 03:19:06;;;;;;;;;;;17.50;60.40;;;;;;5069795;28;20011;-88
2022/09/24 03:21:32;;;;;;;;;;;17.60;60.40;;;;;;5073273;28;20279;-85
2022/09/24 03:23:59;;;;;;;;;;;17.60;60.40;;;;;;5070931;28;19912;-87
2022/09/24 03:26:24;;;;;;;;;;;17.50;60.30;;;;;;5070707;28;20314;-91
2022/09/24 03:28:50;;;;;;;;;;;17.60;60.30;;;;;;5071027;28;19912;-87
2022/09/24 03:31:15;;;;;;;;;;;17.70;60.30;;;;;;5069618;28;19916;-93
2022/09/24 03:33:43;;;;;;;;;;;17.70;60.30;;;;;;5075357;28;19923;-89
2022/09/24 03:36:10;;;;;;;;;;;17.70;60.30;;;;;;5073779;28;20337;-89
2022/09/24 03:38:37;;;;;;;;;;;17.70;60.30;;;;;;5075981;28;19917;-85
2022/09/24 03:41:03;;;;;;;;;;;17.80;60.20;;;;;;5073789;28;19923;-90
2022/09/24 03:43:29;;;;;;;;;;;17.80;60.20;;;;;;5072898;28;20295;-88
2022/09/24 03:45:54;;;;;;;;;;;17.80;60.20;;;;;;5076107;28;19916;-88
2022/09/24 03:48:21;;;;;;;;;;;17.80;60.10;;;;;;5074210;28;19919;-87
2022/09/24 03:50:47;;;;;;;;;;;17.80;60.10;;;;;;5074829;28;19920;-93
2022/09/24 03:53:13;;;;;;;;;;;17.80;60.10;;;;;;5077838;28;19912;-91
2022/09/24 03:55:42;;;;;;;;;;;17.90;60.10;;;;;;5075729;28;19977;-88
2022/09/24 03:58:10;;;;;;;;;;;17.90;60.00;;;;;;5073474;28;19951;-88
2022/09/24 04:00:35;;;;;;;;;;;17.90;60.00;;;;;;5076483;28;19948;-89
2022/09/24 04:03:01;;;;;;;;;;;17.90;60.00;;;;;;5081974;28;19969;-86
2022/09/24 04:05:29;;;;;;;;;;;17.90;60.00;;;;;;5094121;28;19912;-93
2022/09/24 04:07:54;;;;;;;;;;;17.90;60.00;;;;;;5092898;28;20318;-89
2022/09/24 04:10:23;;;;;;;;;;;17.80;60.10;;;;;;5092321;28;19912;-89
2022/09/24 04:12:49;;;;;;;;;;;17.80;60.10;;;;;;5092847;28;20019;-87
2022/09/24 04:15:17;;;;;;;;;;;17.80;60.20;;;;;;5092308;28;19974;-87
2022/09/24 04:17:52;;;;;;;;;;;17.70;60.30;;;;;;5094139;28;19916;-86
2022/09/24 04:20:21;;;;;;;;;;;17.70;60.50;;;;;;5093351;28;19920;-90
2022/09/24 04:22:46;;;;;;;;;;;17.70;60.90;;;;;;5093890;28;20418;-90
2022/09/24 04:25:12;;;;;;;;;;;17.60;61.30;;;;;;5097338;28;19912;-88
2022/09/24 04:27:38;;;;;;;;;;;17.50;61.50;;;;;;5092339;28;19966;-90
2022/09/24 04:30:03;;;;;;;;;;;17.50;61.70;;;;;;5093404;28;19998;-86
2022/09/24 04:32:29;;;;;;;;;;;17.50;62.00;;;;;;5093222;28;19923;-89
2022/09/24 04:34:54;;;;;;;;;;;17.50;62.20;;;;;;5093146;28;19923;-89
2022/09/24 04:37:20;;;;;;;;;;;17.50;62.50;;;;;;5091676;28;20090;-87
2022/09/24 04:39:45;;;;;;;;;;;17.50;62.60;;;;;;5093012;28;19916;-89
2022/09/24 04:42:15;;;;;;;;;;;17.50;62.60;;;;;;5093028;28;20355;-89
2022/09/24 04:44:40;;;;;;;;;;;17.50;62.70;;;;;;5093023;28;20002;-88
2022/09/24 04:47:07;;;;;;;;;;;17.50;62.80;;;;;;5091252;28;19951;-86
2022/09/24 04:49:33;;;;;;;;;;;17.40;62.80;;;;;;5092476;28;19909;-89
2022/09/24 04:51:58;;;;;;;;;;;17.40;62.80;;;;;;5093457;28;19922;-86
2022/09/24 04:54:24;;;;;;;;;;;17.40;62.90;;;;;;5091008;28;19973;-86
2022/09/24 04:56:49;;;;;;;;;;;17.30;63.00;;;;;;5092721;28;19965;-86
2022/09/24 04:59:15;;;;;;;;;;;17.40;63.00;;;;;;5092403;28;19920;-84
2022/09/24 05:01:40;;;;;;;;;;;17.30;63.10;;;;;;5092710;28;19942;-86
2022/09/24 05:04:06;;;;;;;;;;;17.30;63.10;;;;;;5077257;28;20379;-85
2022/09/24 05:06:32;;;;;;;;;;;17.30;63.20;;;;;;5072486;28;19995;-88
2022/09/24 05:08:57;;;;;;;;;;;17.30;63.40;;;;;;5072887;28;19909;-88
2022/09/24 05:11:23;;;;;;;;;;;17.30;63.50;;;;;;5070780;28;19912;-88
2022/09/24 05:13:48;;;;;;;;;;;17.30;63.60;;;;;;5070144;28;19970;-89
2022/09/24 05:16:14;;;;;;;;;;;17.30;63.60;;;;;;5070472;28;19913;-89
2022/09/24 05:18:39;;;;;;;;;;;17.30;63.60;;;;;;5071545;28;20383;-89
2022/09/24 05:21:05;;;;;;;;;;;17.30;63.70;;;;;;5070398;28;20569;-85
2022/09/24 05:23:30;;;;;;;;;;;17.30;63.70;;;;;;5071644;28;19912;-89
2022/09/24 05:28:41;;;;;;;;;;;17.30;63.90;;;;;;5071950;28;19920;-88
2022/09/24 05:31:07;;;;;;;;;;;17.40;64.00;;;;;;5070343;28;19920;-88
2022/09/24 05:33:33;;;;;;;;;;;17.40;63.90;;;;;;5072824;28;19995;-85
2022/09/24 05:35:58;;;;;;;;;;;17.40;64.00;;;;;;5072546;28;19947;-84
2022/09/24 05:38:24;;;;;;;;;;;17.50;64.00;;;;;;5072093;28;19921;-87
2022/09/24 05:40:49;;;;;;;;;;;17.50;64.10;;;;;;5070725;28;19913;-85
2022/09/24 05:43:16;;;;;;;;;;;17.50;64.20;;;;;;5069978;28;20360;-85
2022/09/24 05:45:43;;;;;;;;;;;17.50;64.10;;;;;;5069620;28;20015;-87
2022/09/24 05:48:08;;;;;;;;;;;17.50;64.00;;;;;;5071265;28;19974;-87
2022/09/24 05:50:34;;;;;;;;;;;17.50;64.10;;;;;;5071546;28;19912;-88
2022/09/24 05:53:00;;;;;;;;;;;17.60;64.20;;;;;;5071274;28;19912;-89
2022/09/24 05:55:26;;;;;;;;;;;17.60;64.20;;;;;;5070029;28;19952;-88
2022/09/24 05:57:52;;;;;;;;;;;17.60;64.20;;;;;;5071762;28;19929;-85
2022/09/24 06:00:17;;;;;;;;;;;17.60;64.30;;;;;;5069631;28;19927;-88
2022/09/24 06:02:43;;;;;;;;;;;17.70;64.30;;;;;;5074304;28;20386;-88
2022/09/24 06:05:08;;;;;;;;;;;17.70;64.40;;;;;;5090171;28;19946;-88
2022/09/24 06:07:34;;;;;;;;;;;17.70;64.50;;;;;;5091326;28;19912;-85
2022/09/24 06:09:59;;;;;;;;;;;17.70;64.60;;;;;;5089942;28;19912;-86
2022/09/24 06:12:25;;;;;;;;;;;17.80;64.60;;;;;;5090341;28;19912;-86
2022/09/24 06:14:52;;;;;;;;;;;17.70;64.50;;;;;;5091890;28;19990;-88
2022/09/24 06:17:18;;;;;;;;;;;17.80;64.60;;;;;;5089484;28;19920;-87
2022/09/24 06:19:46;;;;;;;;;;;17.80;64.60;;;;;;5090968;28;19912;-86
2022/09/24 06:22:11;;;;;;;;;;;17.80;64.70;;;;;;5091758;28;19928;-89
2022/09/24 06:24:37;;;;;;;;;;;17.80;64.70;;;;;;5089967;28;19912;-86
2022/09/24 06:27:02;;;;;;;;;;;17.80;64.90;;;;;;5091007;28;19912;-88
2022/09/24 06:29:28;;;;;;;;;;;17.90;65.10;;;;;;5091363;28;19916;-88
2022/09/24 06:31:53;;;;;;;;;;;18.00;65.10;;;;;;5091196;28;19912;-85
2022/09/24 06:34:19;;;;;;;;;;;18.00;65.10;;;;;;5089517;28;19916;-85
2022/09/24 06:36:44;;;;;;;;;;;18.10;65.10;;;;;;5091267;28;19912;-85
2022/09/24 06:39:09;;;;;;;;;;;18.10;64.90;;;;;;5090822;28;19919;-84
2022/09/24 06:41:35;;;;;;;;;;;18.10;65.00;;;;;;5090768;28;19920;-84
2022/09/24 06:44:01;;;;;;;;;;;18.00;64.70;;;;;;5090723;28;19908;-85
2022/09/24 06:46:26;;;;;;;;;;;18.00;64.80;;;;;;5090776;28;19927;-86
2022/09/24 06:48:55;;;;;;;;;;;18.00;64.70;;;;;;5089423;28;19909;-89
2022/09/24 06:51:20;;;;;;;;;;;18.00;64.90;;;;;;5091223;28;19920;-88
2022/09/24 06:53:49;;;;;;;;;;;18.10;65.00;;;;;;5091293;28;19920;-89
2022/09/24 06:56:15;;;;;;;;;;;18.10;65.00;;;;;;5089906;28;20014;-89
2022/09/24 06:58:40;;;;;;;;;;;18.10;65.00;;;;;;5089141;28;20431;-86
2022/09/24 07:01:05;;;;;;;;;;;18.10;65.10;;;;;;5091200;28;20038;-86
2022/09/24 07:03:32;;;;;;;;;;;18.10;65.20;;;;;;5078720;28;19908;-86
2022/09/24 07:06:04;;;;;;;;;;;18.20;65.30;;;;;;5069884;28;19912;-86
2022/09/24 07:08:30;;;;;;;;;;;18.20;65.40;;;;;;5074316;28;19916;-89
2022/09/24 07:10:56;;;;;;;;;;;18.30;65.50;;;;;;5074427;28;20474;-86
2022/09/24 07:13:21;;;;;;;;;;;18.40;65.70;;;;;;5074344;28;19924;-89
2022/09/24 07:15:51;;;;;;;;;;;18.50;65.80;;;;;;5072732;28;20428;-86
2022/09/24 07:18:17;;;;;;;;;;;18.60;65.80;;;;;;5074106;28;20757;-89
2022/09/24 07:20:42;;;;;;;;;;;18.70;65.70;;;;;;5072714;28;19920;-86
2022/09/24 07:23:09;;;;;;;;;;;18.70;65.80;;;;;;5073943;28;20383;-86
2022/09/24 07:25:35;;;;;;;;;;;18.80;65.60;;;;;;5074518;28;19912;-85
2022/09/24 07:28:04;;;;;;;;;;;18.80;65.40;;;;;;5075107;28;19917;-86
2022/09/24 07:30:31;;;;;;;;;;;18.80;65.50;;;;;;5073447;28;20378;-88
2022/09/24 07:32:57;;;;;;;;;;;18.80;65.60;;;;;;5073628;28;20019;-85
2022/09/24 07:35:22;;;;;;;;;;;18.80;65.60;;;;;;5074371;28;19920;-89
2022/09/24 07:37:54;;;;;;;;;;;18.80;65.40;;;;;;5072918;28;19924;-88
2022/09/24 07:40:20;;;;;;;;;;;18.80;65.00;;;;;;5074031;28;19959;-85
2022/09/24 07:42:47;;;;;;;;;;;18.70;65.10;;;;;;5073933;28;19916;-89
2022/09/24 07:45:12;;;;;;;;;;;18.70;64.90;;;;;;5073881;28;19916;-88
2022/09/24 07:47:38;;;;;;;;;;;18.70;65.00;;;;;;5072210;28;19916;-85
2022/09/24 07:50:04;;;;;;;;;;;18.70;65.10;;;;;;5073716;28;19912;-88
2022/09/24 07:52:29;;;;;;;;;;;18.70;65.20;;;;;;5074076;28;20017;-89
2022/09/24 07:54:55;;;;;;;;;;;18.80;65.30;;;;;;5072220;28;20262;-88
2022/09/24 07:57:20;;;;;;;;;;;18.80;65.40;;;;;;5073252;28;19964;-86
2022/09/24 07:59:46;;;;;;;;;;;18.80;65.40;;;;;;5072112;28;19963;-89
2022/09/24 08:02:14;;;;;;;;;;;18.90;65.60;;;;;;5072363;28;19959;-89
2022/09/24 08:04:39;;;;;;;;;;;18.90;65.50;;;;;;5071989;28;19956;-86
2022/09/24 08:07:05;;;;;;;;;;;19.00;65.60;;;;;;5073522;28;19940;-86
2022/09/24 08:09:31;;;;;;;;;;;19.10;65.50;;;;;;5071999;28;19912;-89
2022/09/24 08:11:57;;;;;;;;;;;19.20;65.60;;;;;;5071858;28;20310;-85
2022/09/24 08:14:22;;;;;;;;;;;19.20;65.60;;;;;;5073014;28;19919;-89
2022/09/24 08:16:48;;;;;;;;;;;19.30;65.70;;;;;;5072002;28;19920;-85
2022/09/24 08:19:14;;;;;;;;;;;19.30;65.90;;;;;;5071889;28;20016;-88
2022/09/24 08:21:39;;;;;;;;;;;19.40;66.00;;;;;;5071793;28;19920;-84
2022/09/24 08:24:05;;;;;;;;;;;19.50;66.00;;;;;;5073517;28;19936;-89
2022/09/24 08:26:30;;;;;;;;;;;19.50;65.80;;;;;;5074252;28;19916;-85
2022/09/24 08:28:57;;;;;;;;;;;19.50;65.80;;;;;;5073126;28;19908;-88
2022/09/24 08:31:22;;;;;;;;;;;19.60;65.80;;;;;;5073540;28;19912;-88
2022/09/24 08:33:49;;;;;;;;;;;19.70;65.80;;;;;;5072651;28;20498;-86
2022/09/24 08:36:15;;;;;;;;;;;19.70;66.10;;;;;;5072371;28;20324;-86
2022/09/24 08:38:41;;;;;;;;;;;19.70;66.10;;;;;;5071595;28;20449;-89
2022/09/24 08:41:14;;;;;;;;;;;19.80;65.90;;;;;;5071124;28;19919;-88
2022/09/24 08:44:00;;;;;;;;;;;19.70;66.00;;;;;;5072397;28;19908;-88
2022/09/24 08:49:18;;;;;;;;;;;19.80;65.90;;;;;;5072276;28;19920;-89
2022/09/24 08:51:55;;;;;;;;;;;19.80;66.20;;;;;;5071516;28;19919;-86
2022/09/24 08:54:23;;;;;;;;;;;19.90;66.20;;;;;;5072156;28;19916;-86
2022/09/24 08:56:51;;;;;;;;;;;20.00;66.20;;;;;;5072093;28;19987;-85
2022/09/24 08:59:26;;;;;;;;;;;20.10;66.40;;;;;;5072341;28;19921;-88
2022/09/24 09:01:58;;;;;;;;;;;20.10;66.40;;;;;;5072747;28;20267;-88
2022/09/24 09:04:35;;;;;;;;;;;20.20;66.50;;;;;;5090375;28;19912;-84
2022/09/24 09:07:06;;;;;;;;;;;20.30;66.40;;;;;;5090795;28;19919;-89
2022/09/24 09:09:37;;;;;;;;;;;20.30;66.20;;;;;;5093152;28;19924;-87
2022/09/24 09:12:05;;;;;;;;;;;20.30;66.00;;;;;;5092304;28;19919;-89
2022/09/24 09:14:33;;;;;;;;;;;20.30;66.00;;;;;;5092390;28;19916;-86
2022/09/24 09:17:03;;;;;;;;;;;20.40;66.00;;;;;;5092033;28;19967;-88
2022/09/24 09:19:35;;;;;;;;;;;20.50;66.10;;;;;;5090997;28;19916;-86
2022/09/24 09:22:13;;;;;;;;;;;20.50;66.20;;;;;;5092263;28;19924;-86
2022/09/24 09:24:39;;;;;;;;;;;20.60;66.40;;;;;;5091879;28;19912;-86
2022/09/24 09:27:09;;;;;;;;;;;20.60;66.00;;;;;;5091909;28;19958;-86
2022/09/24 09:29:35;;;;;;;;;;;20.70;65.90;;;;;;5092648;28;19959;-89
2022/09/24 09:32:20;;;;;;;;;;;20.60;66.40;;;;;;5091875;28;20322;-89
2022/09/24 09:34:50;;;;;;;;;;;20.70;66.50;;;;;;5083420;28;19916;-86
2022/09/24 09:37:22;;;;;;;;;;;20.70;66.60;;;;;;5092368;28;19970;-86
2022/09/24 09:39:58;;;;;;;;;;;20.80;66.60;;;;;;5091029;28;19966;-88
2022/09/24 09:42:35;;;;;;;;;;;20.80;66.50;;;;;;5089857;28;19913;-89
2022/09/24 09:45:01;;;;;;;;;;;20.90;66.40;;;;;;5092022;28;19916;-88
2022/09/24 09:47:40;;;;;;;;;;;20.90;66.20;;;;;;5091886;28;19946;-90
2022/09/24 09:50:13;;;;;;;;;;;21.00;66.10;;;;;;5092118;28;19969;-89
2022/09/24 09:52:39;;;;;;;;;;;21.00;66.40;;;;;;5087686;28;20331;-88
2022/09/24 09:55:05;;;;;;;;;;;21.10;66.50;;;;;;5082356;28;20430;-85
2022/09/24 09:57:32;;;;;;;;;;;21.20;66.40;;;;;;5088195;28;20028;-89
2022/09/24 09:59:58;;;;;;;;;;;21.30;66.40;;;;;;5088585;28;19966;-85
2022/09/24 10:02:25;;;;;;;;;;;21.40;66.60;;;;;;5087995;28;19920;-88
2022/09/24 10:04:54;;;;;;;;;;;21.50;66.40;;;;;;5072021;28;19919;-86
2022/09/24 10:07:19;;;;;;;;;;;21.50;66.10;;;;;;5088411;28;19920;-89
2022/09/24 10:09:45;;;;;;;;;;;21.50;66.10;;;;;;5089369;28;20062;-86
2022/09/24 10:12:21;;;;;;;;;;;21.60;66.00;;;;;;5088479;28;19916;-89
2022/09/24 10:15:03;;;;;;;;;;;21.60;65.80;;;;;;5086649;28;19912;-89
2022/09/24 10:17:38;;;;;;;;;;;21.60;65.80;;;;;;5088048;28;19928;-87
2022/09/24 10:20:14;;;;;;;;;;;21.70;65.90;;;;;;5088228;28;19941;-90
2022/09/24 10:22:45;;;;;;;;;;;21.70;66.00;;;;;;5086715;28;19922;-86
2022/09/24 10:25:19;;;;;;;;;;;21.70;65.70;;;;;;5088079;28;19916;-90
2022/09/24 10:27:45;;;;;;;;;;;21.80;65.90;;;;;;5087038;28;19916;-86
2022/09/24 10:32:57;;;;;;;;;;;21.90;65.80;;;;;;5088514;28;19922;-85
2022/09/24 10:35:26;;;;;;;;;;;22.00;65.70;;;;;;5088346;28;19916;-89
2022/09/24 10:37:53;;;;;;;;;;;21.90;65.30;;;;;;5088055;28;20401;-88
2022/09/24 10:40:22;;;;;;;;;;;22.00;65.80;;;;;;5088208;28;20350;-86
2022/09/24 10:42:53;;;;;;;;;;;22.10;65.70;;;;;;5089472;28;19916;-89
2022/09/24 10:45:19;;;;;;;;;;;22.20;66.10;;;;;;5086759;28;19916;-88
2022/09/24 10:48:04;;;;;;;;;;;22.30;66.10;;;;;;5081544;28;20316;-88
2022/09/24 10:50:32;;;;;;;;;;;22.30;65.70;;;;;;5067651;28;19922;-90
2022/09/24 10:53:05;;;;;;;;;;;22.40;66.10;;;;;;5067734;28;19962;-87
2022/09/24 10:55:30;;;;;;;;;;;22.60;66.20;;;;;;5069335;28;19963;-86
2022/09/24 10:58:07;;;;;;;;;;;22.70;66.20;;;;;;5067476;28;19956;-86
2022/09/24 11:00:42;;;;;;;;;;;22.80;66.10;;;;;;5068945;28;19920;-90
2022/09/24 11:03:08;;;;;;;;;;;22.80;65.60;;;;;;5072807;28;19916;-89
2022/09/24 11:05:43;;;;;;;;;;;22.90;66.20;;;;;;5086521;28;19916;-89
2022/09/24 11:08:38;;;;;;;;;;;23.00;66.20;;;;;;5088033;28;20022;-86
2022/09/24 11:11:22;;;;;;;;;;;23.10;65.70;;;;;;5083264;28;19916;-86
2022/09/24 11:13:56;;;;;;;;;;;23.10;65.40;;;;;;5088464;28;20341;-89
2022/09/24 11:16:28;;;;;;;;;;;23.10;65.30;;;;;;5087684;28;19920;-86
2022/09/24 11:18:56;;;;;;;;;;;23.20;65.80;;;;;;5086049;28;19931;-86
2022/09/24 11:21:22;;;;;;;;;;;23.30;65.80;;;;;;5087781;28;20353;-86
2022/09/24 11:23:50;;;;;;;;;;;23.40;66.10;;;;;;5085923;28;19923;-86
2022/09/24 11:26:32;;;;;;;;;;;23.60;66.40;;;;;;5085973;28;20001;-89
2022/09/24 11:29:13;;;;;;;;;;;23.80;66.60;;;;;;5087549;28;19916;-89
2022/09/24 11:31:58;;;;;;;;;;;24.10;66.20;;;;;;5087521;28;20274;-89
2022/09/24 11:34:27;;;;;;;;;;;24.30;66.20;;;;;;5086808;28;19913;-89
2022/09/24 11:37:03;;;;;;;;;;;24.30;65.90;;;;;;5085839;28;19916;-86
2022/09/24 11:39:34;;;;;;;;;;;24.40;65.60;;;;;;5086220;28;19917;-90
2022/09/24 11:42:06;;;;;;;;;;;24.70;66.20;;;;;;5088511;28;19916;-90
2022/09/24 11:44:51;;;;;;;;;;;25.10;66.40;;;;;;5086177;28;19945;-89
2022/09/24 11:47:35;;;;;;;;;;;25.60;66.30;;;;;;5083282;28;19928;-86
2022/09/24 11:50:13;;;;;;;;;;;26.00;66.00;;;;;;5067221;28;20595;-89
2022/09/24 11:52:54;;;;;;;;;;;26.40;65.50;;;;;;5066673;28;19952;-89
2022/09/24 11:55:30;;;;;;;;;;;26.80;64.80;;;;;;5069354;28;19943;-86
2022/09/24 11:58:13;;;;;;;;;;;27.00;63.20;;;;;;5071978;28;20371;-85
2022/09/24 12:00:41;;;;;;;;;;;27.10;63.00;;;;;;5070065;28;19923;-86
2022/09/24 12:03:16;;;;;;;;;;;27.10;61.70;;;;;;5076666;28;20259;-87
2022/09/24 12:05:50;;;;;;;;;;;27.00;61.40;;;;;;5092111;28;20381;-89
2022/09/24 12:08:18;;;;;;;;;;;26.90;60.80;;;;;;5090446;28;20409;-85
2022/09/24 12:11:01;;;;;;;;;;;26.90;61.40;;;;;;5090294;28;20156;-91
2022/09/24 12:13:35;;;;;;;;;;;27.20;61.90;;;;;;5092471;28;19916;-89
2022/09/24 12:16:07;;;;;;;;;;;27.70;62.10;;;;;;5089330;28;19916;-90
2022/09/24 12:18:35;;;;;;;;;;;27.90;61.30;;;;;;5089922;28;19924;-89
2022/09/24 12:21:11;;;;;;;;;;;28.00;61.30;;;;;;5090616;28;19934;-87
2022/09/24 12:23:40;;;;;;;;;;;27.80;60.40;;;;;;5092068;28;19920;-87
2022/09/24 12:26:06;;;;;;;;;;;27.70;60.60;;;;;;5091010;28;20541;-87
2022/09/24 12:34:37;;;;;;;;;;;27.10;60.20;;;;;;5091332;28;19962;-91
2022/09/24 12:37:05;;;;;;;;;;;26.80;60.40;;;;;;5088922;28;20287;-91
2022/09/24 12:39:35;;;;;;;;;;;26.50;60.30;;;;;;5089419;28;19947;-85
2022/09/24 12:42:03;;;;;;;;;;;26.20;60.70;;;;;;5089373;28;20494;-91
2022/09/24 12:44:41;;;;;;;;;;;25.70;60.60;;;;;;5090315;28;19989;-89
2022/09/24 12:47:14;;;;;;;;;;;25.30;60.10;;;;;;5087888;28;19962;-89
2022/09/24 12:49:40;;;;;;;;;;;24.80;60.20;;;;;;5070165;28;20300;-87
2022/09/24 12:52:14;;;;;;;;;;;24.40;60.30;;;;;;5070207;28;20295;-87
2022/09/24 12:54:41;;;;;;;;;;;24.10;60.20;;;;;;5081690;28;19920;-89
2022/09/24 12:57:15;;;;;;;;;;;23.80;61.30;;;;;;5089829;28;19916;-93
2022/09/24 12:59:46;;;;;;;;;;;23.70;62.00;;;;;;5090500;28;19981;-93
2022/09/24 13:02:17;;;;;;;;;;;23.50;62.40;;;;;;5088997;28;19924;-91
2022/09/24 13:04:43;;;;;;;;;;;23.20;62.30;;;;;;5068167;28;19974;-90
2022/09/24 13:07:27;;;;;;;;;;;23.00;62.60;;;;;;5069795;28;19924;-86
2022/09/24 13:09:53;;;;;;;;;;;22.90;62.60;;;;;;5068554;28;19912;-90
2022/09/24 13:12:18;;;;;;;;;;;22.70;62.70;;;;;;5072798;28;19923;-88
2022/09/24 13:15:01;;;;;;;;;;;22.60;62.90;;;;;;5071039;28;20361;-90
2022/09/24 13:17:28;;;;;;;;;;;22.60;63.00;;;;;;5069918;28;19925;-88
2022/09/24 13:19:58;;;;;;;;;;;22.50;63.70;;;;;;5068892;28;19962;-88
2022/09/24 13:22:31;;;;;;;;;;;22.60;64.10;;;;;;5068672;28;19955;-88
2022/09/24 13:25:06;;;;;;;;;;;22.70;64.00;;;;;;5069407;28;20358;-92
2022/09/24 13:27:31;;;;;;;;;;;22.70;63.60;;;;;;5068200;28;19974;-87
2022/09/24 13:30:06;;;;;;;;;;;22.80;63.50;;;;;;5068922;28;20422;-91
2022/09/24 13:32:35;;;;;;;;;;;22.80;63.60;;;;;;5069978;28;20009;-88
2022/09/24 13:35:06;;;;;;;;;;;22.80;63.50;;;;;;5068586;28;19912;-88
2022/09/24 13:37:38;;;;;;;;;;;22.80;63.30;;;;;;5067594;28;19929;-85
2022/09/24 13:40:23;;;;;;;;;;;22.80;63.70;;;;;;5069682;28;19919;-91
2022/09/24 13:42:53;;;;;;;;;;;22.80;63.60;;;;;;5067919;28;19920;-93
2022/09/24 13:45:20;;;;;;;;;;;22.80;63.10;;;;;;5067107;28;19923;-86
2022/09/24 13:47:47;;;;;;;;;;;22.90;63.50;;;;;;5068497;28;19920;-91
2022/09/24 13:50:34;;;;;;;;;;;22.90;63.60;;;;;;5067080;28;19913;-91
2022/09/24 13:53:06;;;;;;;;;;;23.00;63.00;;;;;;5068788;28;19923;-90
2022/09/24 13:55:45;;;;;;;;;;;22.90;63.40;;;;;;5068555;28;20287;-89
2022/09/24 13:58:30;;;;;;;;;;;22.90;63.40;;;;;;5067387;28;19929;-86
2022/09/24 14:00:58;;;;;;;;;;;22.90;63.30;;;;;;5068752;28;19943;-93
2022/09/24 14:03:24;;;;;;;;;;;22.90;63.20;;;;;;5077955;28;19927;-87
2022/09/24 14:05:50;;;;;;;;;;;22.80;62.90;;;;;;5087779;28;20336;-90
2022/09/24 14:08:16;;;;;;;;;;;22.80;62.60;;;;;;5088237;28;19924;-90
2022/09/24 14:10:42;;;;;;;;;;;22.80;62.90;;;;;;5088322;28;20005;-87
2022/09/24 14:13:07;;;;;;;;;;;22.70;62.50;;;;;;5089962;28;19920;-86
2022/09/24 14:15:35;;;;;;;;;;;22.70;62.40;;;;;;5086323;28;19912;-86
2022/09/24 14:18:00;;;;;;;;;;;22.70;62.70;;;;;;5087714;28;19928;-84
2022/09/24 14:20:29;;;;;;;;;;;22.60;63.00;;;;;;5088874;28;19926;-90
2022/09/24 14:22:55;;;;;;;;;;;22.50;63.00;;;;;;5086894;28;19924;-89
2022/09/24 14:25:38;;;;;;;;;;;22.40;63.40;;;;;;5088149;28;19916;-85
2022/09/24 14:28:04;;;;;;;;;;;22.40;63.70;;;;;;5086710;28;20547;-90
2022/09/24 14:30:31;;;;;;;;;;;22.30;63.70;;;;;;5088362;28;20343;-90
2022/09/24 14:32:58;;;;;;;;;;;22.30;63.60;;;;;;5088538;28;20393;-86
2022/09/24 14:35:28;;;;;;;;;;;22.20;64.00;;;;;;5088740;28;19916;-89
2022/09/24 14:37:57;;;;;;;;;;;22.20;64.30;;;;;;5088063;28;19924;-90
2022/09/24 14:40:24;;;;;;;;;;;22.20;64.50;;;;;;5088523;28;19923;-86
2022/09/24 14:42:55;;;;;;;;;;;22.20;64.50;;;;;;5089601;28;19958;-90